sensor_id;sensor_type;location;lat;lon;timestamp;temperature;humidity
29547;DHT22;40782;47.264;11.330;2024-02-26T00:01:32;1.70;99.90
29547;DHT22;40782;47.264;11.330;2024-02-26T00:04:01;1.70;99.90
29547;DHT22;40782;47.264;11.330;2024-02-26T00:06:28;1.70;99.90
29547;DHT22;40782;47.264;11.330;2024-02-26T00:08:55;1.70;99.90
29547;DHT22;40782;47.264;11.330;2024-02-26T00:11:22;1.60;99.90
29547;DHT22;40782;47.264;11.330;2024-02-26T00:13:49;1.70;99.90
29547;DHT22;40782;47.264;11.330;2024-02-26T00:16:17;1.60;99.90
29547;DHT22;40782;47.264;11.330;2024-02-26T00:18:44;1.50;99.90
29547;DHT22;40782;47.264;11.330;2024-02-26T00:21:13;1.50;99.90
29547;DHT22;40782;47.264;11.330;2024-02-26T00:23:40;1.50;99.90
29547;DHT22;40782;47.264;11.330;2024-02-26T00:26:07;1.50;99.90
29547;DHT22;40782;47.264;11.330;2024-02-26T00:28:36;1.50;99.90
29547;DHT22;40782;47.264;11.330;2024-02-26T00:31:03;1.50;99.90
29547;DHT22;40782;47.264;11.330;2024-02-26T00:33:31;1.60;99.90
29547;DHT22;40782;47.264;11.330;2024-02-26T00:35:57;1.60;99.90
29547;DHT22;40782;47.264;11.330;2024-02-26T00:38:25;1.60;99.90
29547;DHT22;40782;47.264;11.330;2024-02-26T00:40:52;1.60;99.90
29547;DHT22;40782;47.264;11.330;2024-02-26T00:43:19;1.60;99.90
29547;DHT22;40782;47.264;11.330;2024-02-26T00:45:47;1.50;99.90
29547;DHT22;40782;47.264;11.330;2024-02-26T00:48:14;1.50;99.90
29547;DHT22;40782;47.264;11.330;2024-02-26T00:50:41;1.60;99.90
29547;DHT22;40782;47.264;11.330;2024-02-26T00:53:09;1.60;99.90
29547;DHT22;40782;47.264;11.330;2024-02-26T00:55:37;1.50;99.90
29547;DHT22;40782;47.264;11.330;2024-02-26T00:58:04;1.50;99.90
29547;DHT22;40782;47.264;11.330;2024-02-26T01:00:31;1.40;99.90
29547;DHT22;40782;47.264;11.330;2024-02-26T01:02:59;1.40;99.90
29547;DHT22;40782;47.264;11.330;2024-02-26T01:05:26;1.40;99.90
29547;DHT22;40782;47.264;11.330;2024-02-26T01:07:54;1.50;99.90
29547;DHT22;40782;47.264;11.330;2024-02-26T01:10:21;1.50;99.90
29547;DHT22;40782;47.264;11.330;2024-02-26T01:12:49;1.50;99.90
29547;DHT22;40782;47.264;11.330;2024-02-26T01:15:16;1.50;99.90
29547;DHT22;40782;47.264;11.330;2024-02-26T01:17:44;1.40;99.90
29547;DHT22;40782;47.264;11.330;2024-02-26T01:20:11;1.40;99.90
29547;DHT22;40782;47.264;11.330;2024-02-26T01:22:38;1.40;99.90
29547;DHT22;40782;47.264;11.330;2024-02-26T01:25:07;1.40;99.90
29547;DHT22;40782;47.264;11.330;2024-02-26T01:27:35;1.40;99.90
29547;DHT22;40782;47.264;11.330;2024-02-26T01:30:04;1.40;99.90
29547;DHT22;40782;47.264;11.330;2024-02-26T01:32:32;1.40;99.90
29547;DHT22;40782;47.264;11.330;2024-02-26T01:34:59;1.40;99.90
29547;DHT22;40782;47.264;11.330;2024-02-26T01:37:26;1.30;99.90
29547;DHT22;40782;47.264;11.330;2024-02-26T01:39:55;1.30;99.90
29547;DHT22;40782;47.264;11.330;2024-02-26T01:42:22;1.30;99.90
29547;DHT22;40782;47.264;11.330;2024-02-26T01:44:50;1.30;99.90
29547;DHT22;40782;47.264;11.330;2024-02-26T01:47:19;1.20;99.90
29547;DHT22;40782;47.264;11.330;2024-02-26T01:49:46;1.30;99.90
29547;DHT22;40782;47.264;11.330;2024-02-26T01:52:13;1.20;99.90
29547;DHT22;40782;47.264;11.330;2024-02-26T01:54:41;1.20;99.90
29547;DHT22;40782;47.264;11.330;2024-02-26T01:57:09;1.20;99.90
29547;DHT22;40782;47.264;11.330;2024-02-26T01:59:37;1.20;99.90
29547;DHT22;40782;47.264;11.330;2024-02-26T02:02:07;1.20;99.90
29547;DHT22;40782;47.264;11.330;2024-02-26T02:04:37;1.20;99.90
29547;DHT22;40782;47.264;11.330;2024-02-26T02:07:04;1.20;99.90
29547;DHT22;40782;47.264;11.330;2024-02-26T02:09:32;1.20;99.90
29547;DHT22;40782;47.264;11.330;2024-02-26T02:12:00;1.10;99.90
29547;DHT22;40782;47.264;11.330;2024-02-26T02:14:27;1.10;99.90
29547;DHT22;40782;47.264;11.330;2024-02-26T02:16:55;1.10;99.90
29547;DHT22;40782;47.264;11.330;2024-02-26T02:19:22;1.10;99.90
29547;DHT22;40782;47.264;11.330;2024-02-26T02:21:50;1.10;99.90
29547;DHT22;40782;47.264;11.330;2024-02-26T02:24:18;1.10;99.90
29547;DHT22;40782;47.264;11.330;2024-02-26T02:26:45;1.10;99.90
29547;DHT22;40782;47.264;11.330;2024-02-26T02:29:13;1.10;99.90
29547;DHT22;40782;47.264;11.330;2024-02-26T02:31:41;1.10;99.90
29547;DHT22;40782;47.264;11.330;2024-02-26T02:34:09;1.10;99.90
29547;DHT22;40782;47.264;11.330;2024-02-26T02:36:50;1.10;99.90
29547;DHT22;40782;47.264;11.330;2024-02-26T02:39:19;1.10;99.90
29547;DHT22;40782;47.264;11.330;2024-02-26T02:41:46;1.10;99.90
29547;DHT22;40782;47.264;11.330;2024-02-26T02:44:13;1.20;99.90
29547;DHT22;40782;47.264;11.330;2024-02-26T02:46:40;1.30;99.90
29547;DHT22;40782;47.264;11.330;2024-02-26T02:49:08;1.30;99.90
29547;DHT22;40782;47.264;11.330;2024-02-26T02:51:36;1.30;99.90
29547;DHT22;40782;47.264;11.330;2024-02-26T02:54:05;1.30;99.90
29547;DHT22;40782;47.264;11.330;2024-02-26T02:56:32;1.40;99.90
29547;DHT22;40782;47.264;11.330;2024-02-26T02:58:59;1.40;99.90
29547;DHT22;40782;47.264;11.330;2024-02-26T03:01:26;1.40;99.90
29547;DHT22;40782;47.264;11.330;2024-02-26T03:03:53;1.40;99.90
29547;DHT22;40782;47.264;11.330;2024-02-26T03:06:21;1.40;99.90
29547;DHT22;40782;47.264;11.330;2024-02-26T03:08:48;1.40;99.90
29547;DHT22;40782;47.264;11.330;2024-02-26T03:11:17;1.40;99.90
29547;DHT22;40782;47.264;11.330;2024-02-26T03:13:44;1.40;99.90
29547;DHT22;40782;47.264;11.330;2024-02-26T03:16:12;1.30;99.90
29547;DHT22;40782;47.264;11.330;2024-02-26T03:18:39;1.30;99.90
29547;DHT22;40782;47.264;11.330;2024-02-26T03:21:07;1.30;99.90
29547;DHT22;40782;47.264;11.330;2024-02-26T03:23:35;1.30;99.90
29547;DHT22;40782;47.264;11.330;2024-02-26T03:26:03;1.20;99.90
29547;DHT22;40782;47.264;11.330;2024-02-26T03:28:32;1.20;99.90
29547;DHT22;40782;47.264;11.330;2024-02-26T03:30:59;1.20;99.90
29547;DHT22;40782;47.264;11.330;2024-02-26T03:33:26;1.20;99.90
29547;DHT22;40782;47.264;11.330;2024-02-26T03:35:53;1.20;99.90
29547;DHT22;40782;47.264;11.330;2024-02-26T03:38:21;1.20;99.90
29547;DHT22;40782;47.264;11.330;2024-02-26T03:40:48;1.10;99.90
29547;DHT22;40782;47.264;11.330;2024-02-26T03:43:16;1.10;99.90
29547;DHT22;40782;47.264;11.330;2024-02-26T03:45:45;1.10;99.90
29547;DHT22;40782;47.264;11.330;2024-02-26T03:48:12;1.10;99.90
29547;DHT22;40782;47.264;11.330;2024-02-26T03:50:39;1.00;99.90
29547;DHT22;40782;47.264;11.330;2024-02-26T03:53:06;1.00;99.90
29547;DHT22;40782;47.264;11.330;2024-02-26T03:55:34;1.00;99.90
29547;DHT22;40782;47.264;11.330;2024-02-26T03:58:02;1.10;99.90
29547;DHT22;40782;47.264;11.330;2024-02-26T04:00:30;1.10;99.90
29547;DHT22;40782;47.264;11.330;2024-02-26T04:02:58;1.10;99.90
29547;DHT22;40782;47.264;11.330;2024-02-26T04:05:25;1.10;99.90
29547;DHT22;40782;47.264;11.330;2024-02-26T04:07:52;1.00;99.90
29547;DHT22;40782;47.264;11.330;2024-02-26T04:10:19;1.00;99.90
29547;DHT22;40782;47.264;11.330;2024-02-26T04:12:47;1.00;99.90
29547;DHT22;40782;47.264;11.330;2024-02-26T04:15:14;1.00;99.90
29547;DHT22;40782;47.264;11.330;2024-02-26T04:17:42;1.00;99.90
29547;DHT22;40782;47.264;11.330;2024-02-26T04:20:14;1.00;99.90
29547;DHT22;40782;47.264;11.330;2024-02-26T04:22:42;1.00;99.90
29547;DHT22;40782;47.264;11.330;2024-02-26T04:25:09;1.10;99.90
29547;DHT22;40782;47.264;11.330;2024-02-26T04:27:36;1.10;99.90
29547;DHT22;40782;47.264;11.330;2024-02-26T04:30:05;1.10;99.90
29547;DHT22;40782;47.264;11.330;2024-02-26T04:32:32;1.00;99.90
29547;DHT22;40782;47.264;11.330;2024-02-26T04:35:00;1.00;99.90
29547;DHT22;40782;47.264;11.330;2024-02-26T04:37:29;0.90;99.90
29547;DHT22;40782;47.264;11.330;2024-02-26T04:39:58;0.90;99.90
29547;DHT22;40782;47.264;11.330;2024-02-26T04:42:26;0.90;99.90
29547;DHT22;40782;47.264;11.330;2024-02-26T04:44:54;0.90;99.90
29547;DHT22;40782;47.264;11.330;2024-02-26T04:47:21;0.90;99.90
29547;DHT22;40782;47.264;11.330;2024-02-26T04:49:49;0.90;99.90
29547;DHT22;40782;47.264;11.330;2024-02-26T04:52:16;0.90;99.90
29547;DHT22;40782;47.264;11.330;2024-02-26T04:54:45;0.90;99.90
29547;DHT22;40782;47.264;11.330;2024-02-26T04:57:12;0.90;99.90
29547;DHT22;40782;47.264;11.330;2024-02-26T04:59:39;0.90;99.90
29547;DHT22;40782;47.264;11.330;2024-02-26T05:02:08;0.90;99.90
29547;DHT22;40782;47.264;11.330;2024-02-26T05:04:35;0.90;99.90
29547;DHT22;40782;47.264;11.330;2024-02-26T05:07:02;1.00;99.90
29547;DHT22;40782;47.264;11.330;2024-02-26T05:09:31;1.00;99.90
29547;DHT22;40782;47.264;11.330;2024-02-26T05:12:00;1.00;99.90
29547;DHT22;40782;47.264;11.330;2024-02-26T05:14:28;1.00;99.90
29547;DHT22;40782;47.264;11.330;2024-02-26T05:16:55;0.90;99.90
29547;DHT22;40782;47.264;11.330;2024-02-26T05:19:22;0.90;99.90
29547;DHT22;40782;47.264;11.330;2024-02-26T05:21:50;0.90;99.90
29547;DHT22;40782;47.264;11.330;2024-02-26T05:24:17;0.90;99.90
29547;DHT22;40782;47.264;11.330;2024-02-26T05:26:44;0.90;99.90
29547;DHT22;40782;47.264;11.330;2024-02-26T05:29:13;1.00;99.90
29547;DHT22;40782;47.264;11.330;2024-02-26T05:31:42;1.00;99.90
29547;DHT22;40782;47.264;11.330;2024-02-26T05:34:09;1.10;99.90
29547;DHT22;40782;47.264;11.330;2024-02-26T05:36:36;1.10;99.90
29547;DHT22;40782;47.264;11.330;2024-02-26T05:39:04;1.10;99.90
29547;DHT22;40782;47.264;11.330;2024-02-26T05:41:31;1.10;99.90
29547;DHT22;40782;47.264;11.330;2024-02-26T05:43:58;1.00;99.90
29547;DHT22;40782;47.264;11.330;2024-02-26T05:46:27;1.00;99.90
29547;DHT22;40782;47.264;11.330;2024-02-26T05:48:54;1.10;99.90
29547;DHT22;40782;47.264;11.330;2024-02-26T05:51:22;1.00;99.90
29547;DHT22;40782;47.264;11.330;2024-02-26T05:53:49;1.10;99.90
29547;DHT22;40782;47.264;11.330;2024-02-26T05:56:20;1.10;99.90
29547;DHT22;40782;47.264;11.330;2024-02-26T05:58:47;1.10;99.90
29547;DHT22;40782;47.264;11.330;2024-02-26T06:01:15;1.00;99.90
29547;DHT22;40782;47.264;11.330;2024-02-26T06:03:44;1.10;99.90
29547;DHT22;40782;47.264;11.330;2024-02-26T06:06:11;1.10;99.90
29547;DHT22;40782;47.264;11.330;2024-02-26T06:08:39;1.10;99.90
29547;DHT22;40782;47.264;11.330;2024-02-26T06:11:07;1.10;99.90
29547;DHT22;40782;47.264;11.330;2024-02-26T06:13:34;1.00;99.90
29547;DHT22;40782;47.264;11.330;2024-02-26T06:16:01;1.00;99.90
29547;DHT22;40782;47.264;11.330;2024-02-26T06:18:29;1.00;99.90
29547;DHT22;40782;47.264;11.330;2024-02-26T06:20:57;1.00;99.90
29547;DHT22;40782;47.264;11.330;2024-02-26T06:23:25;1.00;99.90
29547;DHT22;40782;47.264;11.330;2024-02-26T06:25:52;1.00;99.90
29547;DHT22;40782;47.264;11.330;2024-02-26T06:28:19;1.00;99.90
29547;DHT22;40782;47.264;11.330;2024-02-26T06:30:46;1.10;99.90
29547;DHT22;40782;47.264;11.330;2024-02-26T06:33:14;1.10;99.90
29547;DHT22;40782;47.264;11.330;2024-02-26T06:35:41;1.20;99.90
29547;DHT22;40782;47.264;11.330;2024-02-26T06:38:09;1.10;99.90
29547;DHT22;40782;47.264;11.330;2024-02-26T06:40:38;1.10;99.90
29547;DHT22;40782;47.264;11.330;2024-02-26T06:43:05;1.10;99.90
29547;DHT22;40782;47.264;11.330;2024-02-26T06:45:32;1.20;99.90
29547;DHT22;40782;47.264;11.330;2024-02-26T06:47:59;1.20;99.90
29547;DHT22;40782;47.264;11.330;2024-02-26T06:50:28;1.30;99.90
29547;DHT22;40782;47.264;11.330;2024-02-26T06:52:55;1.30;99.90
29547;DHT22;40782;47.264;11.330;2024-02-26T06:55:24;1.40;99.90
29547;DHT22;40782;47.264;11.330;2024-02-26T06:57:51;1.40;99.90
29547;DHT22;40782;47.264;11.330;2024-02-26T07:00:18;1.50;99.90
29547;DHT22;40782;47.264;11.330;2024-02-26T07:02:46;1.50;99.90
29547;DHT22;40782;47.264;11.330;2024-02-26T07:05:13;1.50;99.90
29547;DHT22;40782;47.264;11.330;2024-02-26T07:07:40;1.70;99.90
29547;DHT22;40782;47.264;11.330;2024-02-26T07:10:08;1.70;99.90
29547;DHT22;40782;47.264;11.330;2024-02-26T07:12:39;1.70;99.90
29547;DHT22;40782;47.264;11.330;2024-02-26T07:15:07;1.80;99.90
29547;DHT22;40782;47.264;11.330;2024-02-26T07:17:34;1.90;99.90
29547;DHT22;40782;47.264;11.330;2024-02-26T07:20:02;1.90;99.90
29547;DHT22;40782;47.264;11.330;2024-02-26T07:22:30;2.00;99.90
29547;DHT22;40782;47.264;11.330;2024-02-26T07:24:57;1.90;99.90
29547;DHT22;40782;47.264;11.330;2024-02-26T07:27:24;1.90;99.90
29547;DHT22;40782;47.264;11.330;2024-02-26T07:29:53;1.90;99.90
29547;DHT22;40782;47.264;11.330;2024-02-26T07:32:20;2.00;99.90
29547;DHT22;40782;47.264;11.330;2024-02-26T07:34:48;2.00;99.90
29547;DHT22;40782;47.264;11.330;2024-02-26T07:37:17;2.00;99.90
29547;DHT22;40782;47.264;11.330;2024-02-26T07:39:44;2.00;99.90
29547;DHT22;40782;47.264;11.330;2024-02-26T07:42:11;2.00;99.90
29547;DHT22;40782;47.264;11.330;2024-02-26T07:44:38;2.10;99.90
29547;DHT22;40782;47.264;11.330;2024-02-26T07:47:10;2.10;99.90
29547;DHT22;40782;47.264;11.330;2024-02-26T07:49:37;2.10;99.90
29547;DHT22;40782;47.264;11.330;2024-02-26T07:52:04;2.10;99.90
29547;DHT22;40782;47.264;11.330;2024-02-26T07:54:32;2.20;99.90
29547;DHT22;40782;47.264;11.330;2024-02-26T07:56:59;2.20;99.90
29547;DHT22;40782;47.264;11.330;2024-02-26T07:59:27;2.20;99.90
29547;DHT22;40782;47.264;11.330;2024-02-26T08:01:54;2.30;99.90
29547;DHT22;40782;47.264;11.330;2024-02-26T08:04:23;2.30;99.90
29547;DHT22;40782;47.264;11.330;2024-02-26T08:06:50;2.30;99.90
29547;DHT22;40782;47.264;11.330;2024-02-26T08:09:17;2.40;99.90
29547;DHT22;40782;47.264;11.330;2024-02-26T08:11:44;2.40;99.90
29547;DHT22;40782;47.264;11.330;2024-02-26T08:14:11;2.50;99.90
29547;DHT22;40782;47.264;11.330;2024-02-26T08:16:39;2.60;99.90
29547;DHT22;40782;47.264;11.330;2024-02-26T08:19:06;2.60;99.90
29547;DHT22;40782;47.264;11.330;2024-02-26T08:21:37;2.70;99.90
29547;DHT22;40782;47.264;11.330;2024-02-26T08:24:04;2.80;99.90
29547;DHT22;40782;47.264;11.330;2024-02-26T08:26:32;2.80;99.90
29547;DHT22;40782;47.264;11.330;2024-02-26T08:28:59;2.80;99.90
29547;DHT22;40782;47.264;11.330;2024-02-26T08:31:26;2.90;99.90
29547;DHT22;40782;47.264;11.330;2024-02-26T08:33:54;3.00;99.90
29547;DHT22;40782;47.264;11.330;2024-02-26T08:36:21;3.20;99.90
29547;DHT22;40782;47.264;11.330;2024-02-26T08:38:49;3.20;99.90
29547;DHT22;40782;47.264;11.330;2024-02-26T08:41:17;3.30;99.90
29547;DHT22;40782;47.264;11.330;2024-02-26T08:43:44;3.40;99.90
29547;DHT22;40782;47.264;11.330;2024-02-26T08:46:12;3.40;99.90
29547;DHT22;40782;47.264;11.330;2024-02-26T08:48:40;3.50;99.90
29547;DHT22;40782;47.264;11.330;2024-02-26T08:51:07;3.60;99.90
29547;DHT22;40782;47.264;11.330;2024-02-26T08:53:36;3.70;99.90
29547;DHT22;40782;47.264;11.330;2024-02-26T08:56:05;3.80;99.90
29547;DHT22;40782;47.264;11.330;2024-02-26T08:58:33;3.90;99.90
29547;DHT22;40782;47.264;11.330;2024-02-26T09:01:01;4.00;99.90
29547;DHT22;40782;47.264;11.330;2024-02-26T09:03:28;4.00;99.90
29547;DHT22;40782;47.264;11.330;2024-02-26T09:05:56;4.10;99.90
29547;DHT22;40782;47.264;11.330;2024-02-26T09:08:23;4.20;99.90
29547;DHT22;40782;47.264;11.330;2024-02-26T09:10:50;4.20;99.90
29547;DHT22;40782;47.264;11.330;2024-02-26T09:13:19;4.30;99.90
29547;DHT22;40782;47.264;11.330;2024-02-26T09:15:46;4.40;99.90
29547;DHT22;40782;47.264;11.330;2024-02-26T09:18:12;4.50;99.90
29547;DHT22;40782;47.264;11.330;2024-02-26T09:20:40;4.60;99.90
29547;DHT22;40782;47.264;11.330;2024-02-26T09:23:07;4.60;99.90
29547;DHT22;40782;47.264;11.330;2024-02-26T09:25:35;4.60;99.90
29547;DHT22;40782;47.264;11.330;2024-02-26T09:28:02;4.70;99.90
29547;DHT22;40782;47.264;11.330;2024-02-26T09:30:31;4.90;99.90
29547;DHT22;40782;47.264;11.330;2024-02-26T09:32:58;4.90;99.90
29547;DHT22;40782;47.264;11.330;2024-02-26T09:35:26;4.90;99.90
29547;DHT22;40782;47.264;11.330;2024-02-26T09:37:54;4.90;99.90
29547;DHT22;40782;47.264;11.330;2024-02-26T09:40:21;5.00;99.90
29547;DHT22;40782;47.264;11.330;2024-02-26T09:42:53;5.10;99.90
29547;DHT22;40782;47.264;11.330;2024-02-26T09:45:25;5.20;99.90
29547;DHT22;40782;47.264;11.330;2024-02-26T09:47:55;5.30;99.90
29547;DHT22;40782;47.264;11.330;2024-02-26T09:50:23;5.20;99.90
29547;DHT22;40782;47.264;11.330;2024-02-26T09:52:51;5.30;99.90
29547;DHT22;40782;47.264;11.330;2024-02-26T09:55:18;5.40;99.90
29547;DHT22;40782;47.264;11.330;2024-02-26T09:57:46;5.50;99.90
29547;DHT22;40782;47.264;11.330;2024-02-26T10:00:17;5.50;99.90
29547;DHT22;40782;47.264;11.330;2024-02-26T10:02:46;5.50;99.90
29547;DHT22;40782;47.264;11.330;2024-02-26T10:05:17;5.50;99.90
29547;DHT22;40782;47.264;11.330;2024-02-26T10:07:45;5.50;99.90
29547;DHT22;40782;47.264;11.330;2024-02-26T10:10:13;5.60;99.90
29547;DHT22;40782;47.264;11.330;2024-02-26T10:12:40;5.60;99.90
29547;DHT22;40782;47.264;11.330;2024-02-26T10:15:08;5.70;99.90
29547;DHT22;40782;47.264;11.330;2024-02-26T10:17:35;5.80;99.30
29547;DHT22;40782;47.264;11.330;2024-02-26T10:20:15;5.90;97.30
29547;DHT22;40782;47.264;11.330;2024-02-26T10:22:43;5.90;93.70
29547;DHT22;40782;47.264;11.330;2024-02-26T10:25:10;5.90;91.70
29547;DHT22;40782;47.264;11.330;2024-02-26T10:27:38;6.00;90.80
29547;DHT22;40782;47.264;11.330;2024-02-26T10:30:16;6.10;90.30
29547;DHT22;40782;47.264;11.330;2024-02-26T10:32:45;6.30;90.50
29547;DHT22;40782;47.264;11.330;2024-02-26T10:35:14;6.40;89.30
29547;DHT22;40782;47.264;11.330;2024-02-26T10:37:42;6.50;87.40
29547;DHT22;40782;47.264;11.330;2024-02-26T10:40:10;6.80;75.90
29547;DHT22;40782;47.264;11.330;2024-02-26T10:42:38;6.90;55.60
29547;DHT22;40782;47.264;11.330;2024-02-26T10:45:06;7.20;66.90
29547;DHT22;40782;47.264;11.330;2024-02-26T10:47:35;7.40;38.60
29547;DHT22;40782;47.264;11.330;2024-02-26T10:50:03;7.70;35.50
29547;DHT22;40782;47.264;11.330;2024-02-26T10:52:33;7.90;29.30
29547;DHT22;40782;47.264;11.330;2024-02-26T10:55:02;8.10;24.30
29547;DHT22;40782;47.264;11.330;2024-02-26T10:57:33;8.40;15.10
29547;DHT22;40782;47.264;11.330;2024-02-26T11:00:03;8.70;12.70
29547;DHT22;40782;47.264;11.330;2024-02-26T11:02:32;9.00;9.30
29547;DHT22;40782;47.264;11.330;2024-02-26T11:05:02;9.40;1.00
29547;DHT22;40782;47.264;11.330;2024-02-26T11:07:31;9.90;1.00
29547;DHT22;40782;47.264;11.330;2024-02-26T11:09:59;10.50;1.00
29547;DHT22;40782;47.264;11.330;2024-02-26T11:12:29;11.00;1.00
29547;DHT22;40782;47.264;11.330;2024-02-26T11:14:57;11.50;1.00
29547;DHT22;40782;47.264;11.330;2024-02-26T11:17:27;12.00;1.00
29547;DHT22;40782;47.264;11.330;2024-02-26T11:19:58;12.30;1.00
29547;DHT22;40782;47.264;11.330;2024-02-26T11:22:25;12.40;1.00
29547;DHT22;40782;47.264;11.330;2024-02-26T11:24:55;12.30;1.00
29547;DHT22;40782;47.264;11.330;2024-02-26T11:27:26;12.10;1.00
29547;DHT22;40782;47.264;11.330;2024-02-26T11:29:56;12.00;1.00
29547;DHT22;40782;47.264;11.330;2024-02-26T11:32:26;12.00;1.00
29547;DHT22;40782;47.264;11.330;2024-02-26T11:34:54;12.00;1.00
29547;DHT22;40782;47.264;11.330;2024-02-26T11:37:21;11.90;1.00
29547;DHT22;40782;47.264;11.330;2024-02-26T11:39:51;11.80;1.00
29547;DHT22;40782;47.264;11.330;2024-02-26T11:42:24;11.60;1.00
29547;DHT22;40782;47.264;11.330;2024-02-26T11:44:52;11.60;1.00
29547;DHT22;40782;47.264;11.330;2024-02-26T11:47:20;11.80;1.00
29547;DHT22;40782;47.264;11.330;2024-02-26T11:49:48;11.90;1.00
29547;DHT22;40782;47.264;11.330;2024-02-26T11:52:16;11.90;1.00
29547;DHT22;40782;47.264;11.330;2024-02-26T11:54:44;11.90;1.00
29547;DHT22;40782;47.264;11.330;2024-02-26T11:57:27;11.90;1.00
29547;DHT22;40782;47.264;11.330;2024-02-26T11:59:55;11.90;1.00
29547;DHT22;40782;47.264;11.330;2024-02-26T12:02:43;11.90;1.00
29547;DHT22;40782;47.264;11.330;2024-02-26T12:05:12;12.00;1.00
29547;DHT22;40782;47.264;11.330;2024-02-26T12:07:40;11.70;1.00
29547;DHT22;40782;47.264;11.330;2024-02-26T12:10:25;11.60;1.00
29547;DHT22;40782;47.264;11.330;2024-02-26T12:12:58;11.40;1.00
29547;DHT22;40782;47.264;11.330;2024-02-26T12:15:31;11.20;1.00
29547;DHT22;40782;47.264;11.330;2024-02-26T12:18:01;11.00;1.00
29547;DHT22;40782;47.264;11.330;2024-02-26T12:20:29;10.90;1.00
29547;DHT22;40782;47.264;11.330;2024-02-26T12:22:56;10.90;1.00
29547;DHT22;40782;47.264;11.330;2024-02-26T12:25:25;10.90;1.00
29547;DHT22;40782;47.264;11.330;2024-02-26T12:27:53;10.70;1.00
29547;DHT22;40782;47.264;11.330;2024-02-26T12:30:22;10.70;1.00
29547;DHT22;40782;47.264;11.330;2024-02-26T12:32:50;10.50;1.00
29547;DHT22;40782;47.264;11.330;2024-02-26T12:35:18;10.40;1.00
29547;DHT22;40782;47.264;11.330;2024-02-26T12:37:46;10.40;1.00
29547;DHT22;40782;47.264;11.330;2024-02-26T12:40:14;10.40;1.00
29547;DHT22;40782;47.264;11.330;2024-02-26T12:42:41;10.40;1.00
29547;DHT22;40782;47.264;11.330;2024-02-26T12:45:10;10.40;1.00
29547;DHT22;40782;47.264;11.330;2024-02-26T12:47:39;10.40;1.00
29547;DHT22;40782;47.264;11.330;2024-02-26T12:50:07;10.30;1.00
29547;DHT22;40782;47.264;11.330;2024-02-26T12:52:35;10.30;1.00
29547;DHT22;40782;47.264;11.330;2024-02-26T12:55:03;10.30;1.00
29547;DHT22;40782;47.264;11.330;2024-02-26T12:57:32;10.40;1.00
29547;DHT22;40782;47.264;11.330;2024-02-26T13:00:00;10.30;1.00
29547;DHT22;40782;47.264;11.330;2024-02-26T13:02:29;10.30;1.00
29547;DHT22;40782;47.264;11.330;2024-02-26T13:04:58;10.30;1.00
29547;DHT22;40782;47.264;11.330;2024-02-26T13:07:27;10.30;1.00
29547;DHT22;40782;47.264;11.330;2024-02-26T13:09:54;10.30;1.00
29547;DHT22;40782;47.264;11.330;2024-02-26T13:12:22;10.30;1.00
29547;DHT22;40782;47.264;11.330;2024-02-26T13:14:58;10.30;1.00
29547;DHT22;40782;47.264;11.330;2024-02-26T13:17:26;10.40;1.00
29547;DHT22;40782;47.264;11.330;2024-02-26T13:19:54;10.40;1.00
29547;DHT22;40782;47.264;11.330;2024-02-26T13:22:22;10.30;1.00
29547;DHT22;40782;47.264;11.330;2024-02-26T13:24:56;10.30;1.00
29547;DHT22;40782;47.264;11.330;2024-02-26T13:27:24;10.30;1.00
29547;DHT22;40782;47.264;11.330;2024-02-26T13:30:03;10.20;1.00
29547;DHT22;40782;47.264;11.330;2024-02-26T13:32:33;10.20;1.00
29547;DHT22;40782;47.264;11.330;2024-02-26T13:35:05;10.20;1.00
29547;DHT22;40782;47.264;11.330;2024-02-26T13:37:34;10.10;1.00
29547;DHT22;40782;47.264;11.330;2024-02-26T13:40:05;10.10;1.00
29547;DHT22;40782;47.264;11.330;2024-02-26T13:42:32;10.10;1.00
29547;DHT22;40782;47.264;11.330;2024-02-26T13:44:59;10.00;1.00
29547;DHT22;40782;47.264;11.330;2024-02-26T13:47:27;10.00;1.00
29547;DHT22;40782;47.264;11.330;2024-02-26T13:49:54;9.90;1.00
29547;DHT22;40782;47.264;11.330;2024-02-26T13:52:22;9.80;1.00
29547;DHT22;40782;47.264;11.330;2024-02-26T13:54:51;9.80;1.00
29547;DHT22;40782;47.264;11.330;2024-02-26T13:57:18;9.80;1.00
29547;DHT22;40782;47.264;11.330;2024-02-26T13:59:45;9.80;1.00
29547;DHT22;40782;47.264;11.330;2024-02-26T14:02:13;9.80;1.00
29547;DHT22;40782;47.264;11.330;2024-02-26T14:04:40;9.70;1.00
29547;DHT22;40782;47.264;11.330;2024-02-26T14:07:07;9.70;1.00
29547;DHT22;40782;47.264;11.330;2024-02-26T14:09:35;9.70;1.00
29547;DHT22;40782;47.264;11.330;2024-02-26T14:12:05;9.70;1.00
29547;DHT22;40782;47.264;11.330;2024-02-26T14:14:32;9.70;1.00
29547;DHT22;40782;47.264;11.330;2024-02-26T14:17:02;9.70;1.00
29547;DHT22;40782;47.264;11.330;2024-02-26T14:19:29;9.70;1.00
29547;DHT22;40782;47.264;11.330;2024-02-26T14:21:56;9.70;1.00
29547;DHT22;40782;47.264;11.330;2024-02-26T14:24:23;9.70;1.00
29547;DHT22;40782;47.264;11.330;2024-02-26T14:26:50;9.70;1.00
29547;DHT22;40782;47.264;11.330;2024-02-26T14:29:19;9.70;1.00
29547;DHT22;40782;47.264;11.330;2024-02-26T14:31:46;9.80;1.00
29547;DHT22;40782;47.264;11.330;2024-02-26T14:34:13;9.80;1.00
29547;DHT22;40782;47.264;11.330;2024-02-26T14:36:43;9.80;1.00
29547;DHT22;40782;47.264;11.330;2024-02-26T14:39:11;9.90;1.00
29547;DHT22;40782;47.264;11.330;2024-02-26T14:41:39;9.90;1.00
29547;DHT22;40782;47.264;11.330;2024-02-26T14:44:06;9.90;1.00
29547;DHT22;40782;47.264;11.330;2024-02-26T14:46:36;9.80;1.00
29547;DHT22;40782;47.264;11.330;2024-02-26T14:49:03;9.90;1.00
29547;DHT22;40782;47.264;11.330;2024-02-26T14:51:30;9.90;1.00
29547;DHT22;40782;47.264;11.330;2024-02-26T14:53:58;10.00;1.00
29547;DHT22;40782;47.264;11.330;2024-02-26T14:56:27;10.00;1.00
29547;DHT22;40782;47.264;11.330;2024-02-26T14:58:54;10.10;1.00
29547;DHT22;40782;47.264;11.330;2024-02-26T15:01:23;10.20;1.00
29547;DHT22;40782;47.264;11.330;2024-02-26T15:03:52;10.40;1.00
29547;DHT22;40782;47.264;11.330;2024-02-26T15:06:19;10.50;1.00
29547;DHT22;40782;47.264;11.330;2024-02-26T15:08:47;10.70;1.00
29547;DHT22;40782;47.264;11.330;2024-02-26T15:11:14;10.90;1.00
29547;DHT22;40782;47.264;11.330;2024-02-26T15:13:42;11.10;1.00
29547;DHT22;40782;47.264;11.330;2024-02-26T15:16:17;11.40;1.00
29547;DHT22;40782;47.264;11.330;2024-02-26T15:18:44;11.80;1.00
29547;DHT22;40782;47.264;11.330;2024-02-26T15:21:13;12.20;1.00
29547;DHT22;40782;47.264;11.330;2024-02-26T15:23:42;12.60;1.00
29547;DHT22;40782;47.264;11.330;2024-02-26T15:26:10;12.80;1.00
29547;DHT22;40782;47.264;11.330;2024-02-26T15:28:37;12.90;1.00
29547;DHT22;40782;47.264;11.330;2024-02-26T15:31:06;13.00;1.00
29547;DHT22;40782;47.264;11.330;2024-02-26T15:33:33;12.90;1.00
29547;DHT22;40782;47.264;11.330;2024-02-26T15:36:01;12.90;1.00
29547;DHT22;40782;47.264;11.330;2024-02-26T15:38:29;12.70;1.00